sensor_id;sensor_type;location;lat;lon;timestamp;P1;durP1;ratioP1;P2;durP2;ratioP2
1925;SDS011;964;42.606;23.588;2022-11-15T00:00:28;50.93;;;27.90;;
1925;SDS011;964;42.606;23.588;2022-11-15T00:02:55;44.70;;;23.47;;
1925;SDS011;964;42.606;23.588;2022-11-15T00:05:22;56.57;;;27.30;;
1925;SDS011;964;42.606;23.588;2022-11-15T00:07:49;52.20;;;25.90;;
1925;SDS011;964;42.606;23.588;2022-11-15T00:10:16;53.53;;;25.07;;
1925;SDS011;964;42.606;23.588;2022-11-15T00:12:45;56.83;;;25.30;;
1925;SDS011;964;42.606;23.588;2022-11-15T00:15:11;54.90;;;27.60;;
1925;SDS011;964;42.606;23.588;2022-11-15T00:17:38;51.03;;;23.80;;
1925;SDS011;964;42.606;23.588;2022-11-15T00:20:05;46.47;;;23.50;;
1925;SDS011;964;42.606;23.588;2022-11-15T00:22:33;46.37;;;23.57;;
1925;SDS011;964;42.606;23.588;2022-11-15T00:25:00;41.67;;;22.40;;
1925;SDS011;964;42.606;23.588;2022-11-15T00:27:28;42.37;;;25.57;;
1925;SDS011;964;42.606;23.588;2022-11-15T00:29:56;43.07;;;22.80;;
1925;SDS011;964;42.606;23.588;2022-11-15T00:32:23;48.17;;;25.43;;
1925;SDS011;964;42.606;23.588;2022-11-15T00:34:52;45.53;;;22.10;;
1925;SDS011;964;42.606;23.588;2022-11-15T00:37:19;45.97;;;24.10;;
1925;SDS011;964;42.606;23.588;2022-11-15T00:39:46;41.20;;;22.13;;
1925;SDS011;964;42.606;23.588;2022-11-15T00:42:12;51.10;;;24.33;;
1925;SDS011;964;42.606;23.588;2022-11-15T00:44:39;44.53;;;22.17;;
1925;SDS011;964;42.606;23.588;2022-11-15T00:47:07;50.50;;;22.03;;
1925;SDS011;964;42.606;23.588;2022-11-15T00:49:34;48.67;;;21.97;;
1925;SDS011;964;42.606;23.588;2022-11-15T00:52:01;41.73;;;23.03;;
1925;SDS011;964;42.606;23.588;2022-11-15T00:54:28;42.60;;;22.00;;
1925;SDS011;964;42.606;23.588;2022-11-15T00:56:55;42.20;;;22.40;;
1925;SDS011;964;42.606;23.588;2022-11-15T00:59:22;49.67;;;23.83;;
1925;SDS011;964;42.606;23.588;2022-11-15T01:01:48;45.93;;;22.00;;
1925;SDS011;964;42.606;23.588;2022-11-15T01:04:17;40.10;;;21.63;;
1925;SDS011;964;42.606;23.588;2022-11-15T01:06:44;53.03;;;24.27;;
1925;SDS011;964;42.606;23.588;2022-11-15T01:09:10;44.80;;;22.30;;
1925;SDS011;964;42.606;23.588;2022-11-15T01:11:38;50.43;;;25.40;;
1925;SDS011;964;42.606;23.588;2022-11-15T01:14:05;43.80;;;22.10;;
1925;SDS011;964;42.606;23.588;2022-11-15T01:16:32;51.23;;;22.27;;
1925;SDS011;964;42.606;23.588;2022-11-15T01:18:59;45.13;;;22.57;;
1925;SDS011;964;42.606;23.588;2022-11-15T01:21:28;35.87;;;21.50;;
1925;SDS011;964;42.606;23.588;2022-11-15T01:23:55;54.70;;;25.50;;
1925;SDS011;964;42.606;23.588;2022-11-15T01:26:23;46.37;;;24.40;;
1925;SDS011;964;42.606;23.588;2022-11-15T01:28:50;44.87;;;22.87;;
1925;SDS011;964;42.606;23.588;2022-11-15T01:31:18;44.70;;;24.90;;
1925;SDS011;964;42.606;23.588;2022-11-15T01:33:46;46.63;;;24.73;;
1925;SDS011;964;42.606;23.588;2022-11-15T01:36:14;61.20;;;27.90;;
1925;SDS011;964;42.606;23.588;2022-11-15T01:38:44;57.27;;;27.17;;
1925;SDS011;964;42.606;23.588;2022-11-15T01:41:15;59.60;;;28.43;;
1925;SDS011;964;42.606;23.588;2022-11-15T01:43:46;62.57;;;27.90;;
1925;SDS011;964;42.606;23.588;2022-11-15T01:46:18;67.73;;;30.17;;
1925;SDS011;964;42.606;23.588;2022-11-15T01:48:51;59.70;;;30.57;;
1925;SDS011;964;42.606;23.588;2022-11-15T01:51:21;48.93;;;25.37;;
1925;SDS011;964;42.606;23.588;2022-11-15T01:53:54;53.10;;;28.53;;
1925;SDS011;964;42.606;23.588;2022-11-15T01:56:24;60.67;;;28.70;;
1925;SDS011;964;42.606;23.588;2022-11-15T01:58:55;52.17;;;24.70;;
1925;SDS011;964;42.606;23.588;2022-11-15T02:01:25;51.53;;;26.60;;
1925;SDS011;964;42.606;23.588;2022-11-15T02:03:54;51.27;;;24.57;;
1925;SDS011;964;42.606;23.588;2022-11-15T02:06:25;50.77;;;23.57;;
1925;SDS011;964;42.606;23.588;2022-11-15T02:08:53;49.07;;;23.53;;
1925;SDS011;964;42.606;23.588;2022-11-15T02:11:21;48.67;;;24.97;;
1925;SDS011;964;42.606;23.588;2022-11-15T02:13:47;46.70;;;24.10;;
1925;SDS011;964;42.606;23.588;2022-11-15T02:16:16;56.77;;;25.10;;
1925;SDS011;964;42.606;23.588;2022-11-15T02:18:56;50.23;;;26.60;;
1925;SDS011;964;42.606;23.588;2022-11-15T02:21:29;56.73;;;25.37;;
1925;SDS011;964;42.606;23.588;2022-11-15T02:24:11;48.07;;;23.93;;
1925;SDS011;964;42.606;23.588;2022-11-15T02:29:55;47.83;;;24.13;;
1925;SDS011;964;42.606;23.588;2022-11-15T02:32:34;52.57;;;25.10;;
1925;SDS011;964;42.606;23.588;2022-11-15T02:35:10;55.77;;;28.13;;
1925;SDS011;964;42.606;23.588;2022-11-15T02:37:45;49.53;;;26.27;;
1925;SDS011;964;42.606;23.588;2022-11-15T02:40:21;54.23;;;27.83;;
1925;SDS011;964;42.606;23.588;2022-11-15T02:42:54;56.90;;;26.47;;
1925;SDS011;964;42.606;23.588;2022-11-15T02:45:41;60.97;;;28.93;;
1925;SDS011;964;42.606;23.588;2022-11-15T02:48:16;54.20;;;25.70;;
1925;SDS011;964;42.606;23.588;2022-11-15T02:50:44;53.83;;;26.80;;
1925;SDS011;964;42.606;23.588;2022-11-15T02:53:12;56.00;;;28.27;;
1925;SDS011;964;42.606;23.588;2022-11-15T02:55:41;57.33;;;29.70;;
1925;SDS011;964;42.606;23.588;2022-11-15T02:58:17;50.57;;;26.20;;
1925;SDS011;964;42.606;23.588;2022-11-15T03:00:56;56.37;;;28.33;;
1925;SDS011;964;42.606;23.588;2022-11-15T03:03:38;67.60;;;29.80;;
1925;SDS011;964;42.606;23.588;2022-11-15T03:06:15;59.80;;;26.10;;
1925;SDS011;964;42.606;23.588;2022-11-15T03:08:54;62.70;;;28.50;;
1925;SDS011;964;42.606;23.588;2022-11-15T03:11:29;62.83;;;30.13;;
1925;SDS011;964;42.606;23.588;2022-11-15T03:14:00;74.10;;;29.37;;
1925;SDS011;964;42.606;23.588;2022-11-15T03:16:35;78.23;;;31.50;;
1925;SDS011;964;42.606;23.588;2022-11-15T03:19:08;82.80;;;29.90;;
1925;SDS011;964;42.606;23.588;2022-11-15T03:21:39;81.50;;;28.70;;
1925;SDS011;964;42.606;23.588;2022-11-15T03:24:07;86.43;;;28.67;;
1925;SDS011;964;42.606;23.588;2022-11-15T03:26:35;63.63;;;28.77;;
1925;SDS011;964;42.606;23.588;2022-11-15T03:29:06;46.30;;;22.77;;
1925;SDS011;964;42.606;23.588;2022-11-15T03:31:42;36.63;;;19.20;;
1925;SDS011;964;42.606;23.588;2022-11-15T03:34:19;40.23;;;18.57;;
1925;SDS011;964;42.606;23.588;2022-11-15T03:36:51;34.77;;;17.80;;
1925;SDS011;964;42.606;23.588;2022-11-15T03:39:19;39.60;;;18.43;;
1925;SDS011;964;42.606;23.588;2022-11-15T03:41:48;35.60;;;17.27;;
1925;SDS011;964;42.606;23.588;2022-11-15T03:44:26;35.00;;;17.40;;
1925;SDS011;964;42.606;23.588;2022-11-15T03:47:01;42.03;;;21.20;;
1925;SDS011;964;42.606;23.588;2022-11-15T03:49:34;56.47;;;23.57;;
1925;SDS011;964;42.606;23.588;2022-11-15T03:52:03;43.57;;;21.63;;
1925;SDS011;964;42.606;23.588;2022-11-15T03:54:31;47.03;;;22.23;;
1925;SDS011;964;42.606;23.588;2022-11-15T03:56:58;45.13;;;20.57;;
1925;SDS011;964;42.606;23.588;2022-11-15T03:59:24;47.53;;;22.27;;
1925;SDS011;964;42.606;23.588;2022-11-15T04:01:51;47.90;;;22.90;;
1925;SDS011;964;42.606;23.588;2022-11-15T04:04:18;57.60;;;25.77;;
1925;SDS011;964;42.606;23.588;2022-11-15T04:06:46;74.23;;;24.17;;
1925;SDS011;964;42.606;23.588;2022-11-15T04:09:13;66.67;;;23.57;;
1925;SDS011;964;42.606;23.588;2022-11-15T04:11:40;72.47;;;25.57;;
1925;SDS011;964;42.606;23.588;2022-11-15T04:14:07;81.67;;;24.43;;
1925;SDS011;964;42.606;23.588;2022-11-15T04:16:34;62.47;;;23.80;;
1925;SDS011;964;42.606;23.588;2022-11-15T04:19:00;61.60;;;26.50;;
1925;SDS011;964;42.606;23.588;2022-11-15T04:21:44;58.47;;;24.20;;
1925;SDS011;964;42.606;23.588;2022-11-15T04:24:30;64.93;;;24.73;;
1925;SDS011;964;42.606;23.588;2022-11-15T04:26:57;56.07;;;23.10;;
1925;SDS011;964;42.606;23.588;2022-11-15T04:29:24;64.33;;;23.20;;
1925;SDS011;964;42.606;23.588;2022-11-15T04:32:07;66.50;;;24.70;;
1925;SDS011;964;42.606;23.588;2022-11-15T04:34:34;65.77;;;23.73;;
1925;SDS011;964;42.606;23.588;2022-11-15T04:37:04;65.23;;;23.53;;
1925;SDS011;964;42.606;23.588;2022-11-15T04:39:41;54.37;;;22.53;;
1925;SDS011;964;42.606;23.588;2022-11-15T04:42:09;63.13;;;24.97;;
1925;SDS011;964;42.606;23.588;2022-11-15T04:44:36;59.77;;;27.23;;
1925;SDS011;964;42.606;23.588;2022-11-15T04:47:03;60.20;;;26.57;;
1925;SDS011;964;42.606;23.588;2022-11-15T04:49:31;52.87;;;26.57;;
1925;SDS011;964;42.606;23.588;2022-11-15T04:51:58;60.50;;;30.47;;
1925;SDS011;964;42.606;23.588;2022-11-15T04:54:26;67.27;;;28.73;;
1925;SDS011;964;42.606;23.588;2022-11-15T04:56:53;89.30;;;29.33;;
1925;SDS011;964;42.606;23.588;2022-11-15T04:59:20;57.77;;;28.30;;
1925;SDS011;964;42.606;23.588;2022-11-15T05:01:47;66.00;;;28.17;;
1925;SDS011;964;42.606;23.588;2022-11-15T05:04:14;60.57;;;28.27;;
1925;SDS011;964;42.606;23.588;2022-11-15T05:06:46;50.30;;;24.97;;
1925;SDS011;964;42.606;23.588;2022-11-15T05:09:14;49.10;;;22.50;;
1925;SDS011;964;42.606;23.588;2022-11-15T05:11:42;41.07;;;20.80;;
1925;SDS011;964;42.606;23.588;2022-11-15T05:14:09;57.03;;;21.00;;
1925;SDS011;964;42.606;23.588;2022-11-15T05:16:36;43.50;;;21.47;;
1925;SDS011;964;42.606;23.588;2022-11-15T05:19:03;42.70;;;22.00;;
1925;SDS011;964;42.606;23.588;2022-11-15T05:21:30;37.27;;;20.20;;
1925;SDS011;964;42.606;23.588;2022-11-15T05:23:57;38.60;;;18.30;;
1925;SDS011;964;42.606;23.588;2022-11-15T05:26:24;40.60;;;19.37;;
1925;SDS011;964;42.606;23.588;2022-11-15T05:28:53;69.87;;;26.33;;
1925;SDS011;964;42.606;23.588;2022-11-15T05:31:21;50.17;;;26.60;;
1925;SDS011;964;42.606;23.588;2022-11-15T05:33:49;65.47;;;28.90;;
1925;SDS011;964;42.606;23.588;2022-11-15T05:39:28;66.20;;;28.63;;
1925;SDS011;964;42.606;23.588;2022-11-15T05:41:56;64.13;;;27.30;;
1925;SDS011;964;42.606;23.588;2022-11-15T05:44:29;57.83;;;26.40;;
1925;SDS011;964;42.606;23.588;2022-11-15T05:46:57;52.93;;;26.43;;
1925;SDS011;964;42.606;23.588;2022-11-15T05:49:25;66.13;;;23.80;;
1925;SDS011;964;42.606;23.588;2022-11-15T05:51:56;41.27;;;20.90;;
1925;SDS011;964;42.606;23.588;2022-11-15T05:54:24;48.47;;;22.47;;
1925;SDS011;964;42.606;23.588;2022-11-15T05:56:51;39.27;;;20.23;;
1925;SDS011;964;42.606;23.588;2022-11-15T05:59:18;47.43;;;21.87;;
1925;SDS011;964;42.606;23.588;2022-11-15T06:01:48;42.80;;;20.90;;
1925;SDS011;964;42.606;23.588;2022-11-15T06:04:15;44.00;;;21.80;;
1925;SDS011;964;42.606;23.588;2022-11-15T06:06:42;46.73;;;22.13;;
1925;SDS011;964;42.606;23.588;2022-11-15T06:09:08;34.63;;;18.07;;
1925;SDS011;964;42.606;23.588;2022-11-15T06:11:35;45.40;;;19.53;;
1925;SDS011;964;42.606;23.588;2022-11-15T06:14:02;40.30;;;19.60;;
1925;SDS011;964;42.606;23.588;2022-11-15T06:16:29;37.17;;;20.63;;
1925;SDS011;964;42.606;23.588;2022-11-15T06:18:58;38.53;;;19.97;;
1925;SDS011;964;42.606;23.588;2022-11-15T06:21:24;42.13;;;21.07;;
1925;SDS011;964;42.606;23.588;2022-11-15T06:23:53;40.40;;;19.17;;
1925;SDS011;964;42.606;23.588;2022-11-15T06:26:19;32.73;;;18.10;;
1925;SDS011;964;42.606;23.588;2022-11-15T06:28:47;33.93;;;18.00;;
1925;SDS011;964;42.606;23.588;2022-11-15T06:31:13;27.07;;;15.27;;
1925;SDS011;964;42.606;23.588;2022-11-15T06:33:40;29.27;;;15.90;;
1925;SDS011;964;42.606;23.588;2022-11-15T06:36:10;30.43;;;15.90;;
1925;SDS011;964;42.606;23.588;2022-11-15T06:38:40;36.03;;;18.30;;
1925;SDS011;964;42.606;23.588;2022-11-15T06:41:07;34.53;;;17.53;;
1925;SDS011;964;42.606;23.588;2022-11-15T06:43:36;33.90;;;18.83;;
1925;SDS011;964;42.606;23.588;2022-11-15T06:46:04;41.03;;;17.03;;
1925;SDS011;964;42.606;23.588;2022-11-15T06:48:32;41.27;;;15.73;;
1925;SDS011;964;42.606;23.588;2022-11-15T06:51:00;38.37;;;18.47;;
1925;SDS011;964;42.606;23.588;2022-11-15T06:53:29;37.93;;;17.73;;
1925;SDS011;964;42.606;23.588;2022-11-15T06:55:58;37.97;;;17.10;;
1925;SDS011;964;42.606;23.588;2022-11-15T06:58:25;37.63;;;19.30;;
1925;SDS011;964;42.606;23.588;2022-11-15T07:00:52;35.00;;;19.73;;
1925;SDS011;964;42.606;23.588;2022-11-15T07:03:20;42.90;;;20.60;;
1925;SDS011;964;42.606;23.588;2022-11-15T07:05:50;40.87;;;21.00;;
1925;SDS011;964;42.606;23.588;2022-11-15T07:08:19;43.80;;;20.40;;
1925;SDS011;964;42.606;23.588;2022-11-15T07:10:48;43.17;;;21.73;;
1925;SDS011;964;42.606;23.588;2022-11-15T07:13:15;35.97;;;19.43;;
1925;SDS011;964;42.606;23.588;2022-11-15T07:15:42;43.43;;;19.57;;
1925;SDS011;964;42.606;23.588;2022-11-15T07:18:08;46.10;;;19.30;;
1925;SDS011;964;42.606;23.588;2022-11-15T07:20:35;44.53;;;20.00;;
1925;SDS011;964;42.606;23.588;2022-11-15T07:23:02;44.40;;;20.00;;
1925;SDS011;964;42.606;23.588;2022-11-15T07:25:30;40.77;;;21.00;;
1925;SDS011;964;42.606;23.588;2022-11-15T07:27:59;41.83;;;21.37;;
1925;SDS011;964;42.606;23.588;2022-11-15T07:30:26;40.50;;;21.27;;
1925;SDS011;964;42.606;23.588;2022-11-15T07:32:54;59.60;;;23.80;;
1925;SDS011;964;42.606;23.588;2022-11-15T07:35:21;46.70;;;20.93;;
1925;SDS011;964;42.606;23.588;2022-11-15T07:37:55;46.77;;;22.60;;
1925;SDS011;964;42.606;23.588;2022-11-15T07:40:22;60.30;;;23.80;;
1925;SDS011;964;42.606;23.588;2022-11-15T07:42:49;39.00;;;20.33;;
1925;SDS011;964;42.606;23.588;2022-11-15T07:45:22;59.40;;;21.00;;
1925;SDS011;964;42.606;23.588;2022-11-15T07:47:50;47.53;;;24.10;;
1925;SDS011;964;42.606;23.588;2022-11-15T07:50:18;42.93;;;20.80;;
1925;SDS011;964;42.606;23.588;2022-11-15T07:52:45;42.67;;;21.10;;
1925;SDS011;964;42.606;23.588;2022-11-15T07:55:12;60.33;;;23.60;;
1925;SDS011;964;42.606;23.588;2022-11-15T07:57:39;55.53;;;25.90;;
1925;SDS011;964;42.606;23.588;2022-11-15T08:00:06;48.73;;;23.47;;
1925;SDS011;964;42.606;23.588;2022-11-15T08:02:35;60.73;;;26.50;;
1925;SDS011;964;42.606;23.588;2022-11-15T08:05:02;59.70;;;26.63;;
1925;SDS011;964;42.606;23.588;2022-11-15T08:07:29;53.37;;;26.23;;
1925;SDS011;964;42.606;23.588;2022-11-15T08:09:57;55.37;;;25.20;;
1925;SDS011;964;42.606;23.588;2022-11-15T08:12:26;52.47;;;23.73;;
1925;SDS011;964;42.606;23.588;2022-11-15T08:14:53;53.33;;;22.40;;
1925;SDS011;964;42.606;23.588;2022-11-15T08:17:21;56.73;;;23.30;;
1925;SDS011;964;42.606;23.588;2022-11-15T08:19:49;46.40;;;23.97;;
1925;SDS011;964;42.606;23.588;2022-11-15T08:22:16;47.50;;;22.63;;
1925;SDS011;964;42.606;23.588;2022-11-15T08:24:43;40.43;;;21.67;;
1925;SDS011;964;42.606;23.588;2022-11-15T08:27:10;47.77;;;21.87;;
1925;SDS011;964;42.606;23.588;2022-11-15T08:29:41;43.67;;;20.97;;
1925;SDS011;964;42.606;23.588;2022-11-15T08:32:08;46.63;;;20.43;;
1925;SDS011;964;42.606;23.588;2022-11-15T08:34:36;41.97;;;21.63;;
1925;SDS011;964;42.606;23.588;2022-11-15T08:37:04;42.10;;;20.47;;
1925;SDS011;964;42.606;23.588;2022-11-15T08:39:31;48.97;;;21.17;;
1925;SDS011;964;42.606;23.588;2022-11-15T08:41:58;45.33;;;22.00;;
1925;SDS011;964;42.606;23.588;2022-11-15T08:44:25;43.03;;;19.93;;
1925;SDS011;964;42.606;23.588;2022-11-15T08:46:52;35.17;;;17.97;;
1925;SDS011;964;42.606;23.588;2022-11-15T08:49:19;35.40;;;18.73;;
1925;SDS011;964;42.606;23.588;2022-11-15T08:51:46;41.77;;;20.17;;
1925;SDS011;964;42.606;23.588;2022-11-15T08:54:14;43.20;;;19.70;;
1925;SDS011;964;42.606;23.588;2022-11-15T08:56:41;42.13;;;18.60;;
1925;SDS011;964;42.606;23.588;2022-11-15T08:59:07;43.23;;;20.60;;
1925;SDS011;964;42.606;23.588;2022-11-15T09:01:34;38.23;;;18.47;;
1925;SDS011;964;42.606;23.588;2022-11-15T09:04:04;47.33;;;18.10;;
1925;SDS011;964;42.606;23.588;2022-11-15T09:06:31;47.27;;;21.80;;
1925;SDS011;964;42.606;23.588;2022-11-15T09:08:57;47.77;;;19.00;;
1925;SDS011;964;42.606;23.588;2022-11-15T09:11:27;41.93;;;19.83;;
1925;SDS011;964;42.606;23.588;2022-11-15T09:13:54;41.67;;;20.17;;
1925;SDS011;964;42.606;23.588;2022-11-15T09:16:21;41.00;;;20.30;;
1925;SDS011;964;42.606;23.588;2022-11-15T09:18:48;50.57;;;23.40;;
1925;SDS011;964;42.606;23.588;2022-11-15T09:21:15;39.67;;;21.63;;
1925;SDS011;964;42.606;23.588;2022-11-15T09:23:42;40.00;;;19.57;;
1925;SDS011;964;42.606;23.588;2022-11-15T09:26:09;46.57;;;22.17;;
1925;SDS011;964;42.606;23.588;2022-11-15T09:28:37;48.53;;;20.47;;
1925;SDS011;964;42.606;23.588;2022-11-15T09:31:07;39.70;;;19.73;;
1925;SDS011;964;42.606;23.588;2022-11-15T09:33:34;48.63;;;21.00;;
1925;SDS011;964;42.606;23.588;2022-11-15T09:36:01;42.97;;;20.47;;
1925;SDS011;964;42.606;23.588;2022-11-15T09:38:29;42.83;;;22.77;;
1925;SDS011;964;42.606;23.588;2022-11-15T09:41:05;45.30;;;22.10;;
1925;SDS011;964;42.606;23.588;2022-11-15T09:43:53;39.87;;;20.23;;
1925;SDS011;964;42.606;23.588;2022-11-15T09:46:32;52.93;;;25.47;;
1925;SDS011;964;42.606;23.588;2022-11-15T09:49:16;48.27;;;23.70;;
1925;SDS011;964;42.606;23.588;2022-11-15T09:51:45;43.33;;;22.20;;
1925;SDS011;964;42.606;23.588;2022-11-15T09:54:18;44.43;;;22.90;;
1925;SDS011;964;42.606;23.588;2022-11-15T09:56:52;54.70;;;24.40;;
1925;SDS011;964;42.606;23.588;2022-11-15T09:59:30;58.00;;;25.87;;
1925;SDS011;964;42.606;23.588;2022-11-15T10:02:20;49.93;;;25.60;;
1925;SDS011;964;42.606;23.588;2022-11-15T10:04:59;51.13;;;25.27;;
1925;SDS011;964;42.606;23.588;2022-11-15T10:07:31;49.90;;;22.63;;
1925;SDS011;964;42.606;23.588;2022-11-15T10:10:09;46.67;;;25.57;;
1925;SDS011;964;42.606;23.588;2022-11-15T10:12:47;51.90;;;24.47;;
1925;SDS011;964;42.606;23.588;2022-11-15T10:15:19;43.40;;;22.57;;
1925;SDS011;964;42.606;23.588;2022-11-15T10:20:46;37.27;;;20.93;;
1925;SDS011;964;42.606;23.588;2022-11-15T10:23:15;34.47;;;18.63;;
1925;SDS011;964;42.606;23.588;2022-11-15T10:25:44;32.33;;;18.87;;
1925;SDS011;964;42.606;23.588;2022-11-15T10:28:13;34.97;;;19.30;;
1925;SDS011;964;42.606;23.588;2022-11-15T10:30:43;36.30;;;18.13;;
1925;SDS011;964;42.606;23.588;2022-11-15T10:33:13;36.40;;;17.77;;
1925;SDS011;964;42.606;23.588;2022-11-15T10:35:46;33.00;;;16.70;;
1925;SDS011;964;42.606;23.588;2022-11-15T10:38:13;31.73;;;17.73;;
1925;SDS011;964;42.606;23.588;2022-11-15T10:40:40;28.10;;;16.20;;
1925;SDS011;964;42.606;23.588;2022-11-15T10:43:15;33.33;;;16.70;;
1925;SDS011;964;42.606;23.588;2022-11-15T10:45:45;30.43;;;16.97;;
1925;SDS011;964;42.606;23.588;2022-11-15T10:48:21;32.67;;;18.60;;
1925;SDS011;964;42.606;23.588;2022-11-15T10:50:52;30.63;;;16.97;;
1925;SDS011;964;42.606;23.588;2022-11-15T10:53:21;31.13;;;17.13;;
1925;SDS011;964;42.606;23.588;2022-11-15T10:55:56;33.93;;;17.67;;
1925;SDS011;964;42.606;23.588;2022-11-15T10:58:30;41.30;;;19.70;;
1925;SDS011;964;42.606;23.588;2022-11-15T11:01:09;38.00;;;19.70;;
1925;SDS011;964;42.606;23.588;2022-11-15T11:03:39;36.80;;;20.20;;
1925;SDS011;964;42.606;23.588;2022-11-15T11:06:08;42.90;;;20.93;;
1925;SDS011;964;42.606;23.588;2022-11-15T11:08:37;39.30;;;20.20;;
1925;SDS011;964;42.606;23.588;2022-11-15T11:11:05;38.90;;;19.37;;
1925;SDS011;964;42.606;23.588;2022-11-15T11:13:34;50.60;;;24.37;;
1925;SDS011;964;42.606;23.588;2022-11-15T11:19:04;42.10;;;21.67;;
1925;SDS011;964;42.606;23.588;2022-11-15T11:21:43;37.17;;;20.40;;
1925;SDS011;964;42.606;23.588;2022-11-15T11:24:18;35.63;;;20.93;;
1925;SDS011;964;42.606;23.588;2022-11-15T11:26:57;39.33;;;21.60;;
1925;SDS011;964;42.606;23.588;2022-11-15T11:29:38;37.87;;;22.53;;
1925;SDS011;964;42.606;23.588;2022-11-15T11:32:21;41.43;;;23.00;;
1925;SDS011;964;42.606;23.588;2022-11-15T11:34:58;36.30;;;20.97;;
1925;SDS011;964;42.606;23.588;2022-11-15T11:37:36;46.97;;;22.40;;
1925;SDS011;964;42.606;23.588;2022-11-15T11:40:13;41.37;;;22.67;;
1925;SDS011;964;42.606;23.588;2022-11-15T11:42:48;46.20;;;23.37;;
1925;SDS011;964;42.606;23.588;2022-11-15T11:45:38;37.50;;;20.53;;
1925;SDS011;964;42.606;23.588;2022-11-15T11:48:19;37.73;;;21.17;;
1925;SDS011;964;42.606;23.588;2022-11-15T11:50:57;42.00;;;22.83;;
1925;SDS011;964;42.606;23.588;2022-11-15T11:53:31;37.80;;;22.43;;
1925;SDS011;964;42.606;23.588;2022-11-15T11:56:09;36.07;;;21.50;;
1925;SDS011;964;42.606;23.588;2022-11-15T11:58:43;32.73;;;20.90;;
1925;SDS011;964;42.606;23.588;2022-11-15T12:01:13;32.03;;;21.13;;
1925;SDS011;964;42.606;23.588;2022-11-15T12:03:45;33.43;;;21.27;;
1925;SDS011;964;42.606;23.588;2022-11-15T12:06:20;29.20;;;18.93;;
1925;SDS011;964;42.606;23.588;2022-11-15T12:08:52;33.53;;;18.87;;
1925;SDS011;964;42.606;23.588;2022-11-15T12:11:27;30.30;;;20.87;;
1925;SDS011;964;42.606;23.588;2022-11-15T12:13:58;30.40;;;19.87;;
1925;SDS011;964;42.606;23.588;2022-11-15T12:16:28;24.95;;;18.30;;
1925;SDS011;964;42.606;23.588;2022-11-15T12:18:59;27.60;;;17.57;;
1925;SDS011;964;42.606;23.588;2022-11-15T12:21:30;30.73;;;18.30;;
1925;SDS011;964;42.606;23.588;2022-11-15T12:24:04;29.60;;;19.07;;
1925;SDS011;964;42.606;23.588;2022-11-15T12:26:36;30.27;;;20.33;;
1925;SDS011;964;42.606;23.588;2022-11-15T12:29:09;30.00;;;19.07;;
1925;SDS011;964;42.606;23.588;2022-11-15T12:31:48;28.27;;;19.20;;
1925;SDS011;964;42.606;23.588;2022-11-15T12:34:35;26.97;;;18.97;;
1925;SDS011;964;42.606;23.588;2022-11-15T12:40:21;28.90;;;18.77;;
1925;SDS011;964;42.606;23.588;2022-11-15T12:42:57;30.93;;;18.33;;
1925;SDS011;964;42.606;23.588;2022-11-15T12:45:39;31.27;;;20.27;;
1925;SDS011;964;42.606;23.588;2022-11-15T12:57:55;35.07;;;23.30;;
1925;SDS011;964;42.606;23.588;2022-11-15T13:01:08;31.37;;;20.80;;
1925;SDS011;964;42.606;23.588;2022-11-15T13:03:43;32.13;;;20.33;;
1925;SDS011;964;42.606;23.588;2022-11-15T13:06:40;31.30;;;21.90;;
1925;SDS011;964;42.606;23.588;2022-11-15T13:12:51;32.10;;;22.60;;
1925;SDS011;964;42.606;23.588;2022-11-15T13:15:34;32.80;;;23.30;;
1925;SDS011;964;42.606;23.588;2022-11-15T13:21:20;34.57;;;23.10;;
1925;SDS011;964;42.606;23.588;2022-11-15T13:24:10;36.40;;;22.83;;
1925;SDS011;964;42.606;23.588;2022-11-15T13:26:39;36.53;;;24.13;;
1925;SDS011;964;42.606;23.588;2022-11-15T13:29:14;36.53;;;23.53;;
1925;SDS011;964;42.606;23.588;2022-11-15T13:31:43;33.37;;;22.47;;
1925;SDS011;964;42.606;23.588;2022-11-15T13:37:01;34.70;;;22.70;;
1925;SDS011;964;42.606;23.588;2022-11-15T13:39:29;39.10;;;23.63;;
1925;SDS011;964;42.606;23.588;2022-11-15T13:41:58;33.60;;;20.73;;
1925;SDS011;964;42.606;23.588;2022-11-15T13:44:26;37.47;;;22.70;;
1925;SDS011;964;42.606;23.588;2022-11-15T13:47:03;34.80;;;21.80;;
1925;SDS011;964;42.606;23.588;2022-11-15T13:49:31;36.17;;;23.47;;
1925;SDS011;964;42.606;23.588;2022-11-15T13:52:00;35.70;;;21.70;;
1925;SDS011;964;42.606;23.588;2022-11-15T13:54:29;38.17;;;23.03;;
1925;SDS011;964;42.606;23.588;2022-11-15T13:57:00;35.90;;;22.70;;
1925;SDS011;964;42.606;23.588;2022-11-15T13:59:30;41.57;;;22.97;;
1925;SDS011;964;42.606;23.588;2022-11-15T14:02:02;42.37;;;23.60;;
1925;SDS011;964;42.606;23.588;2022-11-15T14:04:39;39.50;;;23.60;;
1925;SDS011;964;42.606;23.588;2022-11-15T14:07:15;41.10;;;22.70;;
1925;SDS011;964;42.606;23.588;2022-11-15T14:09:44;42.13;;;23.13;;
1925;SDS011;964;42.606;23.588;2022-11-15T14:15:30;36.73;;;21.30;;
1925;SDS011;964;42.606;23.588;2022-11-15T14:18:00;38.03;;;20.20;;
1925;SDS011;964;42.606;23.588;2022-11-15T14:20:30;37.10;;;21.20;;
1925;SDS011;964;42.606;23.588;2022-11-15T14:22:58;34.20;;;20.00;;
1925;SDS011;964;42.606;23.588;2022-11-15T14:25:26;36.03;;;20.80;;
1925;SDS011;964;42.606;23.588;2022-11-15T14:28:11;33.13;;;20.93;;
1925;SDS011;964;42.606;23.588;2022-11-15T14:30:40;32.37;;;20.33;;
1925;SDS011;964;42.606;23.588;2022-11-15T14:33:21;35.80;;;19.83;;
1925;SDS011;964;42.606;23.588;2022-11-15T14:35:50;36.47;;;20.30;;
1925;SDS011;964;42.606;23.588;2022-11-15T14:38:17;36.10;;;22.37;;
1925;SDS011;964;42.606;23.588;2022-11-15T14:40:44;33.83;;;20.93;;
1925;SDS011;964;42.606;23.588;2022-11-15T14:43:18;40.07;;;21.03;;
1925;SDS011;964;42.606;23.588;2022-11-15T14:45:45;29.77;;;20.10;;
1925;SDS011;964;42.606;23.588;2022-11-15T14:48:12;33.80;;;20.10;;
1925;SDS011;964;42.606;23.588;2022-11-15T14:50:40;40.37;;;21.30;;
1925;SDS011;964;42.606;23.588;2022-11-15T14:53:10;33.43;;;19.40;;
1925;SDS011;964;42.606;23.588;2022-11-15T14:55:38;38.97;;;20.60;;
1925;SDS011;964;42.606;23.588;2022-11-15T14:58:06;34.20;;;20.97;;
1925;SDS011;964;42.606;23.588;2022-11-15T15:00:34;37.80;;;20.07;;
1925;SDS011;964;42.606;23.588;2022-11-15T15:03:01;37.23;;;20.43;;
1925;SDS011;964;42.606;23.588;2022-11-15T15:05:30;33.07;;;19.23;;
1925;SDS011;964;42.606;23.588;2022-11-15T15:08:00;40.87;;;21.00;;
1925;SDS011;964;42.606;23.588;2022-11-15T15:10:27;46.30;;;20.40;;
1925;SDS011;964;42.606;23.588;2022-11-15T15:12:58;35.77;;;19.60;;
1925;SDS011;964;42.606;23.588;2022-11-15T15:15:25;41.03;;;20.27;;
1925;SDS011;964;42.606;23.588;2022-11-15T15:17:55;37.70;;;20.40;;
1925;SDS011;964;42.606;23.588;2022-11-15T15:20:22;36.83;;;20.40;;
1925;SDS011;964;42.606;23.588;2022-11-15T15:22:49;49.47;;;22.63;;
1925;SDS011;964;42.606;23.588;2022-11-15T15:25:20;38.93;;;21.87;;
1925;SDS011;964;42.606;23.588;2022-11-15T15:27:50;34.87;;;21.00;;
1925;SDS011;964;42.606;23.588;2022-11-15T15:30:17;32.80;;;18.93;;
1925;SDS011;964;42.606;23.588;2022-11-15T15:32:44;33.90;;;19.47;;
1925;SDS011;964;42.606;23.588;2022-11-15T15:35:11;39.20;;;20.43;;
1925;SDS011;964;42.606;23.588;2022-11-15T15:37:38;39.23;;;20.10;;
1925;SDS011;964;42.606;23.588;2022-11-15T15:40:10;30.33;;;19.20;;
1925;SDS011;964;42.606;23.588;2022-11-15T15:42:43;42.10;;;22.77;;
1925;SDS011;964;42.606;23.588;2022-11-15T15:45:10;44.30;;;27.00;;